Airfield :







YOU CAN JOIN US ON...

 
LOGIN :

Register | Disclaimer

   EN    FR    IT 

 









Legend :    VFR   Marginal VFR   IFR   Intensive IFR   Very Intensive IFR
Visi :
Ceiling :
>= 8 km
>= 3000ft
5 to 8 km
1000 to 3000 ft
1500m to 5 km
500 to 1000 ft
800 to 1500m
200 to 500 ft
< 800m
< 200 ft
Symbols :   Thunderstorms  Fog  Heavy snow  Heavy precipitations  Wind > 20 kt






- Airport Elevation : 56 ft


KRKD - Knox County Regional

CURRENT METAR :
  • 291156Z AUTO 30003KT CLR M06/M09 A2993 RMK AO2 SLP137 7//// T10611094 11044 21061 53018 PWINO FZRANO $

EXPIRED METARs :
  • 291056Z AUTO 00000KT CLR M06/M10 A2991 RMK AO2 SLP129 T10561100 PWINO FZRANO $
  • 290956Z AUTO VRB04KT CLR M06/M09 A2989 RMK AO2 SLP122 T10561094 PWINO FZRANO $

TAF KRKD
Valid from the 29 at 12:00 until the 30 at 12:00 UTC


291120Z 2912/3012 33005KT P6SM SKC AMD LTD TO CLD VIS AND WIND



MET'MAP, your aeronautical weather chart ! - Copyright ORBIFLY December 2007 - Disclaimer

ORBIFLY MET'MAP TEAM :

Programming & Development : Alexandra Zaïnal
Concept & original design : Baudouin d'Aumeries
Assistance for programming : Marc-Olivier Méhu
Technical & hardware support : Manuel Goepfert

Contact : metmap@orbifly.com




SOURCES & CREDITS :

   NOAA